sensor_id;sensor_type;location;lat;lon;timestamp;temperature;humidity
26745;DHT22;14342;50.960;13.880;2023-12-14T00:00:34;8.00;99.90
26745;DHT22;14342;50.960;13.880;2023-12-14T00:01:35;8.00;99.90
26745;DHT22;14342;50.960;13.880;2023-12-14T00:02:36;8.00;99.90
26745;DHT22;14342;50.960;13.880;2023-12-14T00:03:37;8.00;99.90
26745;DHT22;14342;50.960;13.880;2023-12-14T00:04:37;8.00;99.90
26745;DHT22;14342;50.960;13.880;2023-12-14T00:05:39;8.00;99.90
26745;DHT22;14342;50.960;13.880;2023-12-14T00:06:40;8.00;99.90
26745;DHT22;14342;50.960;13.880;2023-12-14T00:07:41;8.00;99.90
26745;DHT22;14342;50.960;13.880;2023-12-14T00:08:42;8.00;99.90
26745;DHT22;14342;50.960;13.880;2023-12-14T00:09:43;8.00;99.90
26745;DHT22;14342;50.960;13.880;2023-12-14T00:10:45;8.00;99.90
26745;DHT22;14342;50.960;13.880;2023-12-14T00:11:47;8.00;99.90
26745;DHT22;14342;50.960;13.880;2023-12-14T00:12:47;8.00;99.90
26745;DHT22;14342;50.960;13.880;2023-12-14T00:13:51;8.00;99.90
26745;DHT22;14342;50.960;13.880;2023-12-14T00:14:51;8.00;99.90
26745;DHT22;14342;50.960;13.880;2023-12-14T00:15:53;8.00;99.90
26745;DHT22;14342;50.960;13.880;2023-12-14T00:16:54;7.70;99.90
26745;DHT22;14342;50.960;13.880;2023-12-14T00:17:55;8.00;99.90
26745;DHT22;14342;50.960;13.880;2023-12-14T00:18:56;8.00;99.90
26745;DHT22;14342;50.960;13.880;2023-12-14T00:19:57;8.00;99.90
26745;DHT22;14342;50.960;13.880;2023-12-14T00:20:58;8.00;99.90
26745;DHT22;14342;50.960;13.880;2023-12-14T00:21:59;8.10;99.90
26745;DHT22;14342;50.960;13.880;2023-12-14T00:23:00;8.10;99.90
26745;DHT22;14342;50.960;13.880;2023-12-14T00:24:02;8.00;99.90
26745;DHT22;14342;50.960;13.880;2023-12-14T00:25:03;8.00;99.90
26745;DHT22;14342;50.960;13.880;2023-12-14T00:26:05;8.00;99.90
26745;DHT22;14342;50.960;13.880;2023-12-14T00:27:07;8.00;99.90
26745;DHT22;14342;50.960;13.880;2023-12-14T00:28:07;8.00;99.90
26745;DHT22;14342;50.960;13.880;2023-12-14T00:29:09;8.00;99.90
26745;DHT22;14342;50.960;13.880;2023-12-14T00:30:10;8.00;99.90
26745;DHT22;14342;50.960;13.880;2023-12-14T00:31:11;8.00;99.90
26745;DHT22;14342;50.960;13.880;2023-12-14T00:32:12;8.00;99.90
26745;DHT22;14342;50.960;13.880;2023-12-14T00:33:13;8.00;99.90
26745;DHT22;14342;50.960;13.880;2023-12-14T00:34:14;8.00;99.90
26745;DHT22;14342;50.960;13.880;2023-12-14T00:35:16;8.00;99.90
26745;DHT22;14342;50.960;13.880;2023-12-14T00:36:19;8.00;99.90
26745;DHT22;14342;50.960;13.880;2023-12-14T00:37:20;8.00;99.90
26745;DHT22;14342;50.960;13.880;2023-12-14T00:38:21;8.00;99.90
26745;DHT22;14342;50.960;13.880;2023-12-14T00:39:23;7.90;99.90
26745;DHT22;14342;50.960;13.880;2023-12-14T00:40:23;7.90;99.90
26745;DHT22;14342;50.960;13.880;2023-12-14T00:41:26;7.80;99.90
26745;DHT22;14342;50.960;13.880;2023-12-14T00:42:28;7.80;99.90
26745;DHT22;14342;50.960;13.880;2023-12-14T00:43:28;7.80;99.90
26745;DHT22;14342;50.960;13.880;2023-12-14T00:44:29;7.80;99.90
26745;DHT22;14342;50.960;13.880;2023-12-14T00:45:31;7.80;99.90
26745;DHT22;14342;50.960;13.880;2023-12-14T00:46:31;7.80;99.90
26745;DHT22;14342;50.960;13.880;2023-12-14T00:47:33;7.80;99.90
26745;DHT22;14342;50.960;13.880;2023-12-14T00:48:33;7.80;99.90
26745;DHT22;14342;50.960;13.880;2023-12-14T00:49:35;7.80;99.90
26745;DHT22;14342;50.960;13.880;2023-12-14T00:50:35;7.80;99.90
26745;DHT22;14342;50.960;13.880;2023-12-14T00:51:37;7.80;99.90
26745;DHT22;14342;50.960;13.880;2023-12-14T00:52:38;7.90;99.90
26745;DHT22;14342;50.960;13.880;2023-12-14T00:53:39;7.90;99.90
26745;DHT22;14342;50.960;13.880;2023-12-14T00:54:40;7.90;99.90
26745;DHT22;14342;50.960;13.880;2023-12-14T00:55:41;7.90;99.90
26745;DHT22;14342;50.960;13.880;2023-12-14T00:56:43;7.90;99.90
26745;DHT22;14342;50.960;13.880;2023-12-14T00:57:45;7.90;99.90
26745;DHT22;14342;50.960;13.880;2023-12-14T00:58:45;8.00;99.90
26745;DHT22;14342;50.960;13.880;2023-12-14T00:59:46;8.00;99.90
26745;DHT22;14342;50.960;13.880;2023-12-14T01:00:48;8.00;99.90
26745;DHT22;14342;50.960;13.880;2023-12-14T01:01:48;8.00;99.90
26745;DHT22;14342;50.960;13.880;2023-12-14T01:02:50;8.00;99.90
26745;DHT22;14342;50.960;13.880;2023-12-14T01:03:51;8.00;99.90
26745;DHT22;14342;50.960;13.880;2023-12-14T01:04:52;8.00;99.90
26745;DHT22;14342;50.960;13.880;2023-12-14T01:05:53;8.00;99.90
26745;DHT22;14342;50.960;13.880;2023-12-14T01:06:54;8.00;99.90
26745;DHT22;14342;50.960;13.880;2023-12-14T01:07:55;8.00;99.90
26745;DHT22;14342;50.960;13.880;2023-12-14T01:08:56;8.00;99.90
26745;DHT22;14342;50.960;13.880;2023-12-14T01:09:57;8.00;99.90
26745;DHT22;14342;50.960;13.880;2023-12-14T01:10:58;8.00;99.90
26745;DHT22;14342;50.960;13.880;2023-12-14T01:12:00;8.00;99.90
26745;DHT22;14342;50.960;13.880;2023-12-14T01:13:02;8.00;99.90
26745;DHT22;14342;50.960;13.880;2023-12-14T01:14:02;8.00;99.90
26745;DHT22;14342;50.960;13.880;2023-12-14T01:15:05;8.10;99.90
26745;DHT22;14342;50.960;13.880;2023-12-14T01:16:06;8.00;99.90
26745;DHT22;14342;50.960;13.880;2023-12-14T01:17:07;8.00;99.90
26745;DHT22;14342;50.960;13.880;2023-12-14T01:18:08;8.00;99.90
26745;DHT22;14342;50.960;13.880;2023-12-14T01:19:08;8.00;99.90
26745;DHT22;14342;50.960;13.880;2023-12-14T01:20:10;8.00;99.90
26745;DHT22;14342;50.960;13.880;2023-12-14T01:21:11;8.00;99.90
26745;DHT22;14342;50.960;13.880;2023-12-14T01:22:13;8.00;99.90
26745;DHT22;14342;50.960;13.880;2023-12-14T01:23:13;7.90;99.90
26745;DHT22;14342;50.960;13.880;2023-12-14T01:24:14;7.80;99.90
26745;DHT22;14342;50.960;13.880;2023-12-14T01:25:16;7.80;99.90
26745;DHT22;14342;50.960;13.880;2023-12-14T01:26:16;7.80;99.90
26745;DHT22;14342;50.960;13.880;2023-12-14T01:27:20;7.70;99.90
26745;DHT22;14342;50.960;13.880;2023-12-14T01:28:21;7.70;99.90
26745;DHT22;14342;50.960;13.880;2023-12-14T01:29:22;7.70;99.90
26745;DHT22;14342;50.960;13.880;2023-12-14T01:30:22;7.70;99.90
26745;DHT22;14342;50.960;13.880;2023-12-14T01:31:24;7.80;99.90
26745;DHT22;14342;50.960;13.880;2023-12-14T01:32:25;7.80;99.90
26745;DHT22;14342;50.960;13.880;2023-12-14T01:33:26;7.80;99.90
26745;DHT22;14342;50.960;13.880;2023-12-14T01:34:27;7.80;99.90
26745;DHT22;14342;50.960;13.880;2023-12-14T01:35:28;7.80;99.90
26745;DHT22;14342;50.960;13.880;2023-12-14T01:36:30;7.80;99.90
26745;DHT22;14342;50.960;13.880;2023-12-14T01:37:31;7.80;99.90
26745;DHT22;14342;50.960;13.880;2023-12-14T01:38:32;7.80;99.90
26745;DHT22;14342;50.960;13.880;2023-12-14T01:39:33;7.70;99.90
26745;DHT22;14342;50.960;13.880;2023-12-14T01:40:34;7.70;99.90
26745;DHT22;14342;50.960;13.880;2023-12-14T01:41:35;7.70;99.90
26745;DHT22;14342;50.960;13.880;2023-12-14T01:42:38;7.80;99.90
26745;DHT22;14342;50.960;13.880;2023-12-14T01:43:39;7.70;99.90
26745;DHT22;14342;50.960;13.880;2023-12-14T01:44:40;7.70;99.90
26745;DHT22;14342;50.960;13.880;2023-12-14T01:45:41;7.60;99.90
26745;DHT22;14342;50.960;13.880;2023-12-14T01:46:42;7.70;99.90
26745;DHT22;14342;50.960;13.880;2023-12-14T01:47:43;7.70;99.90
26745;DHT22;14342;50.960;13.880;2023-12-14T01:48:44;7.30;99.90
26745;DHT22;14342;50.960;13.880;2023-12-14T01:49:46;7.70;99.90
26745;DHT22;14342;50.960;13.880;2023-12-14T01:50:46;7.80;99.90
26745;DHT22;14342;50.960;13.880;2023-12-14T01:51:48;7.80;99.90
26745;DHT22;14342;50.960;13.880;2023-12-14T01:52:48;7.80;99.90
26745;DHT22;14342;50.960;13.880;2023-12-14T01:53:49;7.80;99.90
26745;DHT22;14342;50.960;13.880;2023-12-14T01:54:51;7.80;99.90
26745;DHT22;14342;50.960;13.880;2023-12-14T01:55:51;7.90;99.90
26745;DHT22;14342;50.960;13.880;2023-12-14T01:56:53;7.80;99.90
26745;DHT22;14342;50.960;13.880;2023-12-14T01:57:56;7.80;99.90
26745;DHT22;14342;50.960;13.880;2023-12-14T01:58:57;7.90;99.90
26745;DHT22;14342;50.960;13.880;2023-12-14T01:59:58;7.90;99.90
26745;DHT22;14342;50.960;13.880;2023-12-14T02:01:00;7.90;99.90
26745;DHT22;14342;50.960;13.880;2023-12-14T02:02:03;7.90;99.90
26745;DHT22;14342;50.960;13.880;2023-12-14T02:03:05;7.90;99.90
26745;DHT22;14342;50.960;13.880;2023-12-14T02:04:06;7.80;99.90
26745;DHT22;14342;50.960;13.880;2023-12-14T02:05:08;7.90;99.90
26745;DHT22;14342;50.960;13.880;2023-12-14T02:06:08;7.90;99.90
26745;DHT22;14342;50.960;13.880;2023-12-14T02:07:10;7.90;99.90
26745;DHT22;14342;50.960;13.880;2023-12-14T02:08:11;7.90;99.90
26745;DHT22;14342;50.960;13.880;2023-12-14T02:09:12;7.90;99.90
26745;DHT22;14342;50.960;13.880;2023-12-14T02:10:13;7.90;99.90
26745;DHT22;14342;50.960;13.880;2023-12-14T02:11:14;7.90;99.90
26745;DHT22;14342;50.960;13.880;2023-12-14T02:12:15;7.90;99.90
26745;DHT22;14342;50.960;13.880;2023-12-14T02:13:18;8.00;99.90
26745;DHT22;14342;50.960;13.880;2023-12-14T02:14:21;8.00;99.90
26745;DHT22;14342;50.960;13.880;2023-12-14T02:15:22;8.00;99.90
26745;DHT22;14342;50.960;13.880;2023-12-14T02:16:23;8.00;99.90
26745;DHT22;14342;50.960;13.880;2023-12-14T02:17:24;8.00;99.90
26745;DHT22;14342;50.960;13.880;2023-12-14T02:18:25;8.00;99.90
26745;DHT22;14342;50.960;13.880;2023-12-14T02:19:27;8.00;99.90
26745;DHT22;14342;50.960;13.880;2023-12-14T02:20:27;8.10;99.90
26745;DHT22;14342;50.960;13.880;2023-12-14T02:21:28;8.10;99.90
26745;DHT22;14342;50.960;13.880;2023-12-14T02:22:33;8.10;99.90
26745;DHT22;14342;50.960;13.880;2023-12-14T02:23:34;8.00;99.90
26745;DHT22;14342;50.960;13.880;2023-12-14T02:24:35;8.10;99.90
26745;DHT22;14342;50.960;13.880;2023-12-14T02:25:36;8.10;99.90
26745;DHT22;14342;50.960;13.880;2023-12-14T02:26:37;8.10;99.90
26745;DHT22;14342;50.960;13.880;2023-12-14T02:27:38;8.10;99.90
26745;DHT22;14342;50.960;13.880;2023-12-14T02:28:39;8.10;99.90
26745;DHT22;14342;50.960;13.880;2023-12-14T02:29:40;8.10;99.90
26745;DHT22;14342;50.960;13.880;2023-12-14T02:30:41;8.10;99.90
26745;DHT22;14342;50.960;13.880;2023-12-14T02:31:43;8.20;99.90
26745;DHT22;14342;50.960;13.880;2023-12-14T02:32:43;8.20;99.90
26745;DHT22;14342;50.960;13.880;2023-12-14T02:33:45;8.20;99.90
26745;DHT22;14342;50.960;13.880;2023-12-14T02:34:46;8.10;99.90
26745;DHT22;14342;50.960;13.880;2023-12-14T02:35:47;8.20;99.90
26745;DHT22;14342;50.960;13.880;2023-12-14T02:36:48;8.10;99.90
26745;DHT22;14342;50.960;13.880;2023-12-14T02:37:51;8.10;99.90
26745;DHT22;14342;50.960;13.880;2023-12-14T02:38:51;8.20;99.90
26745;DHT22;14342;50.960;13.880;2023-12-14T02:39:53;8.20;99.90
26745;DHT22;14342;50.960;13.880;2023-12-14T02:40:53;8.10;99.90
26745;DHT22;14342;50.960;13.880;2023-12-14T02:41:55;8.20;99.90
26745;DHT22;14342;50.960;13.880;2023-12-14T02:42:56;8.10;99.90
26745;DHT22;14342;50.960;13.880;2023-12-14T02:43:57;8.10;99.90
26745;DHT22;14342;50.960;13.880;2023-12-14T02:44:58;8.10;99.90
26745;DHT22;14342;50.960;13.880;2023-12-14T02:45:59;8.10;99.90
26745;DHT22;14342;50.960;13.880;2023-12-14T02:47:02;8.10;99.90
26745;DHT22;14342;50.960;13.880;2023-12-14T02:48:03;8.10;99.90
26745;DHT22;14342;50.960;13.880;2023-12-14T02:49:05;8.10;99.90
26745;DHT22;14342;50.960;13.880;2023-12-14T02:50:06;8.10;99.90
26745;DHT22;14342;50.960;13.880;2023-12-14T02:51:08;8.10;99.90
26745;DHT22;14342;50.960;13.880;2023-12-14T02:52:12;8.10;99.90
26745;DHT22;14342;50.960;13.880;2023-12-14T02:53:14;8.10;99.90
26745;DHT22;14342;50.960;13.880;2023-12-14T02:54:15;8.10;99.90
26745;DHT22;14342;50.960;13.880;2023-12-14T02:55:16;8.10;99.90
26745;DHT22;14342;50.960;13.880;2023-12-14T02:56:17;8.10;99.90
26745;DHT22;14342;50.960;13.880;2023-12-14T02:57:18;8.10;99.90
26745;DHT22;14342;50.960;13.880;2023-12-14T02:58:19;8.20;99.90
26745;DHT22;14342;50.960;13.880;2023-12-14T02:59:20;8.20;99.90
26745;DHT22;14342;50.960;13.880;2023-12-14T03:00:21;8.20;99.90
26745;DHT22;14342;50.960;13.880;2023-12-14T03:01:22;8.20;99.90
26745;DHT22;14342;50.960;13.880;2023-12-14T03:02:23;8.20;99.90
26745;DHT22;14342;50.960;13.880;2023-12-14T03:03:23;8.20;99.90
26745;DHT22;14342;50.960;13.880;2023-12-14T03:04:25;8.20;99.90
26745;DHT22;14342;50.960;13.880;2023-12-14T03:05:26;8.20;99.90
26745;DHT22;14342;50.960;13.880;2023-12-14T03:06:26;8.10;99.90
26745;DHT22;14342;50.960;13.880;2023-12-14T03:07:28;8.10;99.90
26745;DHT22;14342;50.960;13.880;2023-12-14T03:08:30;8.10;99.90
26745;DHT22;14342;50.960;13.880;2023-12-14T03:09:31;8.10;99.90
26745;DHT22;14342;50.960;13.880;2023-12-14T03:10:32;8.10;99.90
26745;DHT22;14342;50.960;13.880;2023-12-14T03:11:33;8.10;99.90
26745;DHT22;14342;50.960;13.880;2023-12-14T03:12:34;8.10;99.90
26745;DHT22;14342;50.960;13.880;2023-12-14T03:13:35;8.10;99.90
26745;DHT22;14342;50.960;13.880;2023-12-14T03:14:36;8.10;99.90
26745;DHT22;14342;50.960;13.880;2023-12-14T03:15:37;8.10;99.90
26745;DHT22;14342;50.960;13.880;2023-12-14T03:16:38;8.10;99.90
26745;DHT22;14342;50.960;13.880;2023-12-14T03:17:39;8.10;99.90
26745;DHT22;14342;50.960;13.880;2023-12-14T03:18:40;8.10;99.90
26745;DHT22;14342;50.960;13.880;2023-12-14T03:19:41;8.10;99.90
26745;DHT22;14342;50.960;13.880;2023-12-14T03:20:42;8.10;99.90
26745;DHT22;14342;50.960;13.880;2023-12-14T03:21:43;8.10;99.90
26745;DHT22;14342;50.960;13.880;2023-12-14T03:22:44;8.10;99.90
26745;DHT22;14342;50.960;13.880;2023-12-14T03:23:47;8.10;99.90
26745;DHT22;14342;50.960;13.880;2023-12-14T03:24:47;8.00;99.90
26745;DHT22;14342;50.960;13.880;2023-12-14T03:25:48;8.00;99.90
26745;DHT22;14342;50.960;13.880;2023-12-14T03:26:49;8.00;99.90
26745;DHT22;14342;50.960;13.880;2023-12-14T03:27:50;8.00;99.90
26745;DHT22;14342;50.960;13.880;2023-12-14T03:28:51;8.00;99.90
26745;DHT22;14342;50.960;13.880;2023-12-14T03:29:52;8.00;99.90
26745;DHT22;14342;50.960;13.880;2023-12-14T03:30:54;8.10;99.90
26745;DHT22;14342;50.960;13.880;2023-12-14T03:31:54;8.00;99.90
26745;DHT22;14342;50.960;13.880;2023-12-14T03:32:56;8.10;99.90
26745;DHT22;14342;50.960;13.880;2023-12-14T03:33:56;8.00;99.90
26745;DHT22;14342;50.960;13.880;2023-12-14T03:34:58;8.10;99.90
26745;DHT22;14342;50.960;13.880;2023-12-14T03:35:59;8.10;99.90
26745;DHT22;14342;50.960;13.880;2023-12-14T03:37:00;8.10;99.90
26745;DHT22;14342;50.960;13.880;2023-12-14T03:38:01;8.10;99.90
26745;DHT22;14342;50.960;13.880;2023-12-14T03:39:04;8.10;99.90
26745;DHT22;14342;50.960;13.880;2023-12-14T03:40:05;8.10;99.90
26745;DHT22;14342;50.960;13.880;2023-12-14T03:41:07;8.10;99.90
26745;DHT22;14342;50.960;13.880;2023-12-14T03:42:07;8.10;99.90
26745;DHT22;14342;50.960;13.880;2023-12-14T03:43:09;8.10;99.90
26745;DHT22;14342;50.960;13.880;2023-12-14T03:44:10;8.10;99.90
26745;DHT22;14342;50.960;13.880;2023-12-14T03:45:11;8.10;99.90
26745;DHT22;14342;50.960;13.880;2023-12-14T03:46:12;8.20;99.90
26745;DHT22;14342;50.960;13.880;2023-12-14T03:47:13;8.10;99.90
26745;DHT22;14342;50.960;13.880;2023-12-14T03:48:14;8.10;99.90
26745;DHT22;14342;50.960;13.880;2023-12-14T03:49:15;8.10;99.90
26745;DHT22;14342;50.960;13.880;2023-12-14T03:50:16;8.10;99.90
26745;DHT22;14342;50.960;13.880;2023-12-14T03:51:17;8.10;99.90
26745;DHT22;14342;50.960;13.880;2023-12-14T03:52:19;8.10;99.90
26745;DHT22;14342;50.960;13.880;2023-12-14T03:53:19;8.20;99.90
26745;DHT22;14342;50.960;13.880;2023-12-14T03:54:22;8.10;99.90
26745;DHT22;14342;50.960;13.880;2023-12-14T03:55:23;8.10;99.90
26745;DHT22;14342;50.960;13.880;2023-12-14T03:56:25;8.00;99.90
26745;DHT22;14342;50.960;13.880;2023-12-14T03:57:25;8.00;99.90
26745;DHT22;14342;50.960;13.880;2023-12-14T03:58:26;8.00;99.90
26745;DHT22;14342;50.960;13.880;2023-12-14T03:59:28;8.00;99.90
26745;DHT22;14342;50.960;13.880;2023-12-14T04:00:28;8.00;99.90
26745;DHT22;14342;50.960;13.880;2023-12-14T04:01:30;8.00;99.90
26745;DHT22;14342;50.960;13.880;2023-12-14T04:02:30;8.00;99.90
26745;DHT22;14342;50.960;13.880;2023-12-14T04:03:31;8.00;99.90
26745;DHT22;14342;50.960;13.880;2023-12-14T04:04:32;8.00;99.90
26745;DHT22;14342;50.960;13.880;2023-12-14T04:05:33;8.00;99.90
26745;DHT22;14342;50.960;13.880;2023-12-14T04:06:34;8.10;99.90
26745;DHT22;14342;50.960;13.880;2023-12-14T04:07:35;8.10;99.90
26745;DHT22;14342;50.960;13.880;2023-12-14T04:08:37;8.10;99.90
26745;DHT22;14342;50.960;13.880;2023-12-14T04:09:39;8.10;99.90
26745;DHT22;14342;50.960;13.880;2023-12-14T04:10:40;8.00;99.90
26745;DHT22;14342;50.960;13.880;2023-12-14T04:11:41;8.10;99.90
26745;DHT22;14342;50.960;13.880;2023-12-14T04:12:42;8.10;99.90
26745;DHT22;14342;50.960;13.880;2023-12-14T04:13:43;8.20;99.90
26745;DHT22;14342;50.960;13.880;2023-12-14T04:14:44;8.10;99.90
26745;DHT22;14342;50.960;13.880;2023-12-14T04:15:45;8.20;99.90
26745;DHT22;14342;50.960;13.880;2023-12-14T04:16:47;8.20;99.90
26745;DHT22;14342;50.960;13.880;2023-12-14T04:17:48;8.20;99.90
26745;DHT22;14342;50.960;13.880;2023-12-14T04:18:49;8.10;99.90
26745;DHT22;14342;50.960;13.880;2023-12-14T04:19:50;8.10;99.90
26745;DHT22;14342;50.960;13.880;2023-12-14T04:20:51;8.10;99.90
26745;DHT22;14342;50.960;13.880;2023-12-14T04:21:52;8.10;99.90
26745;DHT22;14342;50.960;13.880;2023-12-14T04:22:53;8.10;99.90
26745;DHT22;14342;50.960;13.880;2023-12-14T04:23:54;8.10;99.90
26745;DHT22;14342;50.960;13.880;2023-12-14T04:24:57;8.10;99.90
26745;DHT22;14342;50.960;13.880;2023-12-14T04:25:57;8.20;99.90
26745;DHT22;14342;50.960;13.880;2023-12-14T04:26:59;8.20;99.90
26745;DHT22;14342;50.960;13.880;2023-12-14T04:28:00;8.20;99.90
26745;DHT22;14342;50.960;13.880;2023-12-14T04:29:02;8.20;99.90
26745;DHT22;14342;50.960;13.880;2023-12-14T04:30:03;8.20;99.90
26745;DHT22;14342;50.960;13.880;2023-12-14T04:31:06;8.30;99.90
26745;DHT22;14342;50.960;13.880;2023-12-14T04:32:06;8.30;99.90
26745;DHT22;14342;50.960;13.880;2023-12-14T04:33:08;8.20;99.90
26745;DHT22;14342;50.960;13.880;2023-12-14T04:34:09;8.30;99.90
26745;DHT22;14342;50.960;13.880;2023-12-14T04:35:15;8.30;99.90
26745;DHT22;14342;50.960;13.880;2023-12-14T04:36:16;8.30;99.90
26745;DHT22;14342;50.960;13.880;2023-12-14T04:37:17;8.30;99.90
26745;DHT22;14342;50.960;13.880;2023-12-14T04:38:18;8.30;99.90
26745;DHT22;14342;50.960;13.880;2023-12-14T04:39:19;8.30;99.90
26745;DHT22;14342;50.960;13.880;2023-12-14T04:40:21;8.30;99.90
26745;DHT22;14342;50.960;13.880;2023-12-14T04:41:22;8.30;99.90
26745;DHT22;14342;50.960;13.880;2023-12-14T04:42:24;8.30;99.90
26745;DHT22;14342;50.960;13.880;2023-12-14T04:43:24;8.30;99.90
26745;DHT22;14342;50.960;13.880;2023-12-14T04:44:25;8.30;99.90
26745;DHT22;14342;50.960;13.880;2023-12-14T04:45:26;8.40;99.90
26745;DHT22;14342;50.960;13.880;2023-12-14T04:46:27;8.30;99.90
26745;DHT22;14342;50.960;13.880;2023-12-14T04:47:28;8.40;99.90
26745;DHT22;14342;50.960;13.880;2023-12-14T04:48:29;8.40;99.90
26745;DHT22;14342;50.960;13.880;2023-12-14T04:49:31;8.40;99.90
26745;DHT22;14342;50.960;13.880;2023-12-14T04:50:31;8.40;99.90
26745;DHT22;14342;50.960;13.880;2023-12-14T04:51:33;8.40;99.90
26745;DHT22;14342;50.960;13.880;2023-12-14T04:52:33;8.40;99.90
26745;DHT22;14342;50.960;13.880;2023-12-14T04:53:35;8.40;99.90
26745;DHT22;14342;50.960;13.880;2023-12-14T04:54:35;8.40;99.90
26745;DHT22;14342;50.960;13.880;2023-12-14T04:55:41;8.40;99.90
26745;DHT22;14342;50.960;13.880;2023-12-14T04:56:44;8.40;99.90
26745;DHT22;14342;50.960;13.880;2023-12-14T04:57:46;8.40;99.90
26745;DHT22;14342;50.960;13.880;2023-12-14T04:58:49;8.40;99.90
26745;DHT22;14342;50.960;13.880;2023-12-14T04:59:50;8.40;99.90
26745;DHT22;14342;50.960;13.880;2023-12-14T05:00:51;8.60;99.90
26745;DHT22;14342;50.960;13.880;2023-12-14T05:01:53;8.50;99.90
26745;DHT22;14342;50.960;13.880;2023-12-14T05:02:54;8.40;99.90
26745;DHT22;14342;50.960;13.880;2023-12-14T05:03:55;8.40;99.90
26745;DHT22;14342;50.960;13.880;2023-12-14T05:04:56;8.40;99.90
26745;DHT22;14342;50.960;13.880;2023-12-14T05:05:57;8.40;99.90
26745;DHT22;14342;50.960;13.880;2023-12-14T05:06:58;8.30;99.90
26745;DHT22;14342;50.960;13.880;2023-12-14T05:07:59;8.20;99.90
26745;DHT22;14342;50.960;13.880;2023-12-14T05:09:00;8.20;99.90
26745;DHT22;14342;50.960;13.880;2023-12-14T05:10:04;8.20;99.90
26745;DHT22;14342;50.960;13.880;2023-12-14T05:11:06;8.30;99.90
26745;DHT22;14342;50.960;13.880;2023-12-14T05:12:08;8.30;99.90
26745;DHT22;14342;50.960;13.880;2023-12-14T05:13:08;8.30;99.90
26745;DHT22;14342;50.960;13.880;2023-12-14T05:14:09;8.20;99.90
26745;DHT22;14342;50.960;13.880;2023-12-14T05:15:10;8.20;99.90
26745;DHT22;14342;50.960;13.880;2023-12-14T05:16:12;8.20;99.90
26745;DHT22;14342;50.960;13.880;2023-12-14T05:17:14;8.20;99.90
26745;DHT22;14342;50.960;13.880;2023-12-14T05:18:15;8.20;99.90
26745;DHT22;14342;50.960;13.880;2023-12-14T05:19:16;8.10;99.90
26745;DHT22;14342;50.960;13.880;2023-12-14T05:20:17;8.00;99.90
26745;DHT22;14342;50.960;13.880;2023-12-14T05:21:20;7.90;99.90
26745;DHT22;14342;50.960;13.880;2023-12-14T05:22:21;7.90;99.90
26745;DHT22;14342;50.960;13.880;2023-12-14T05:23:22;7.80;99.90
26745;DHT22;14342;50.960;13.880;2023-12-14T05:24:24;7.70;99.90
26745;DHT22;14342;50.960;13.880;2023-12-14T05:25:25;7.70;99.90
26745;DHT22;14342;50.960;13.880;2023-12-14T05:26:28;7.70;99.90
26745;DHT22;14342;50.960;13.880;2023-12-14T05:27:29;7.70;99.90
26745;DHT22;14342;50.960;13.880;2023-12-14T05:28:30;7.60;99.90
26745;DHT22;14342;50.960;13.880;2023-12-14T05:29:31;7.60;99.90
26745;DHT22;14342;50.960;13.880;2023-12-14T05:30:33;7.60;99.90
26745;DHT22;14342;50.960;13.880;2023-12-14T05:31:35;7.60;99.90
26745;DHT22;14342;50.960;13.880;2023-12-14T05:32:35;7.40;99.90
26745;DHT22;14342;50.960;13.880;2023-12-14T05:33:37;7.40;99.90
26745;DHT22;14342;50.960;13.880;2023-12-14T05:34:38;7.30;99.90
26745;DHT22;14342;50.960;13.880;2023-12-14T05:35:39;7.30;99.90
26745;DHT22;14342;50.960;13.880;2023-12-14T05:36:40;7.20;99.90
26745;DHT22;14342;50.960;13.880;2023-12-14T05:37:42;7.20;99.90
26745;DHT22;14342;50.960;13.880;2023-12-14T05:38:43;7.20;99.90
26745;DHT22;14342;50.960;13.880;2023-12-14T05:39:44;7.20;99.90
26745;DHT22;14342;50.960;13.880;2023-12-14T05:40:45;7.20;99.90
26745;DHT22;14342;50.960;13.880;2023-12-14T05:41:48;7.10;99.90
26745;DHT22;14342;50.960;13.880;2023-12-14T05:42:49;7.20;99.90
26745;DHT22;14342;50.960;13.880;2023-12-14T05:43:51;7.10;99.90
26745;DHT22;14342;50.960;13.880;2023-12-14T05:44:52;7.10;99.90
26745;DHT22;14342;50.960;13.880;2023-12-14T05:45:53;7.10;99.90
26745;DHT22;14342;50.960;13.880;2023-12-14T05:46:54;7.10;99.90
26745;DHT22;14342;50.960;13.880;2023-12-14T05:47:56;7.10;99.90
26745;DHT22;14342;50.960;13.880;2023-12-14T05:48:56;7.20;99.90
26745;DHT22;14342;50.960;13.880;2023-12-14T05:49:58;7.20;99.90
26745;DHT22;14342;50.960;13.880;2023-12-14T05:50:59;7.20;99.90
26745;DHT22;14342;50.960;13.880;2023-12-14T05:52:01;7.20;99.90
26745;DHT22;14342;50.960;13.880;2023-12-14T05:53:01;7.20;99.90
26745;DHT22;14342;50.960;13.880;2023-12-14T05:54:03;7.20;99.90
26745;DHT22;14342;50.960;13.880;2023-12-14T05:55:04;7.20;99.90
26745;DHT22;14342;50.960;13.880;2023-12-14T05:56:06;7.20;99.90
26745;DHT22;14342;50.960;13.880;2023-12-14T05:57:08;7.30;99.90
26745;DHT22;14342;50.960;13.880;2023-12-14T05:58:13;7.30;99.90
26745;DHT22;14342;50.960;13.880;2023-12-14T05:59:13;7.30;99.90
26745;DHT22;14342;50.960;13.880;2023-12-14T06:00:15;7.20;99.90
26745;DHT22;14342;50.960;13.880;2023-12-14T06:01:16;7.20;99.90
26745;DHT22;14342;50.960;13.880;2023-12-14T06:02:18;7.20;99.90
26745;DHT22;14342;50.960;13.880;2023-12-14T06:03:18;7.20;99.90
26745;DHT22;14342;50.960;13.880;2023-12-14T06:04:20;7.20;99.90
26745;DHT22;14342;50.960;13.880;2023-12-14T06:05:21;7.20;99.90
26745;DHT22;14342;50.960;13.880;2023-12-14T06:06:21;7.20;99.90
26745;DHT22;14342;50.960;13.880;2023-12-14T06:07:23;7.20;99.90
26745;DHT22;14342;50.960;13.880;2023-12-14T06:08:24;7.20;99.90
26745;DHT22;14342;50.960;13.880;2023-12-14T06:09:25;7.30;99.90
26745;DHT22;14342;50.960;13.880;2023-12-14T06:10:33;7.30;99.90
26745;DHT22;14342;50.960;13.880;2023-12-14T06:11:35;7.30;99.90
26745;DHT22;14342;50.960;13.880;2023-12-14T06:12:38;7.30;99.90
26745;DHT22;14342;50.960;13.880;2023-12-14T06:13:39;7.30;99.90
26745;DHT22;14342;50.960;13.880;2023-12-14T06:14:40;7.30;99.90
26745;DHT22;14342;50.960;13.880;2023-12-14T06:15:41;7.30;99.90
26745;DHT22;14342;50.960;13.880;2023-12-14T06:16:42;7.30;99.90
26745;DHT22;14342;50.960;13.880;2023-12-14T06:17:43;7.30;99.90
26745;DHT22;14342;50.960;13.880;2023-12-14T06:18:44;7.30;99.90
26745;DHT22;14342;50.960;13.880;2023-12-14T06:19:45;7.20;99.90
26745;DHT22;14342;50.960;13.880;2023-12-14T06:20:47;7.20;99.90
26745;DHT22;14342;50.960;13.880;2023-12-14T06:21:47;7.20;99.90
26745;DHT22;14342;50.960;13.880;2023-12-14T06:22:49;7.20;99.90
26745;DHT22;14342;50.960;13.880;2023-12-14T06:23:50;7.30;99.90
26745;DHT22;14342;50.960;13.880;2023-12-14T06:24:51;7.20;99.90
26745;DHT22;14342;50.960;13.880;2023-12-14T06:25:52;7.20;99.90
26745;DHT22;14342;50.960;13.880;2023-12-14T06:26:53;7.20;99.90